Time,TemperatureF,DewpointF,PressureIn,WindDirection,WindDirectionDegrees,WindSpeedMPH,WindSpeedGustMPH,Humidity,HourlyPrecipIn,Conditions,Clouds,dailyrainin,SoftwareType,DateUTC
2013-02-12 00:00:00,44.3,28.2,29.84,WSW,247,6.0,14.0,53,0.00,,,-99.99,WeatherLink 5.4,2013-02-12 05:00:00,
2013-02-12 00:15:00,44.2,28.6,29.84,WSW,247,5.0,10.0,54,0.00,,,-99.99,WeatherLink 5.4,2013-02-12 05:15:00,
2013-02-12 00:20:00,44.2,28.6,29.84,WSW,247,5.0,10.0,54,0.00,,,-99.99,WeatherLink 5.4,2013-02-12 05:20:00,
2013-02-12 00:30:00,44.3,28.2,29.84,WSW,247,4.0,9.0,53,0.00,,,-99.99,WeatherLink 5.4,2013-02-12 05:30:00,
2013-02-12 00:45:00,44.2,28.6,29.84,WSW,247,3.0,8.0,54,0.00,,,-99.99,WeatherLink 5.4,2013-02-12 05:45:00,
2013-02-12 00:50:00,44.2,28.6,29.84,WSW,247,3.0,8.0,54,0.00,,,-99.99,WeatherLink 5.4,2013-02-12 05:50:00,
2013-02-12 01:00:00,44.6,28.5,29.84,West,270,6.0,14.0,53,0.00,,,-99.99,WeatherLink 5.4,2013-02-12 06:00:00,
2013-02-12 01:15:00,44.8,28.2,29.85,West,270,4.0,9.0,52,0.00,,,-99.99,WeatherLink 5.4,2013-02-12 06:15:00,
2013-02-12 01:30:00,44.8,27.3,29.85,West,270,5.0,18.0,50,0.00,,,-99.99,WeatherLink 5.4,2013-02-12 06:30:00,
2013-02-12 01:35:00,44.8,27.3,29.85,West,270,5.0,18.0,50,0.00,,,-99.99,WeatherLink 5.4,2013-02-12 06:35:00,
2013-02-12 01:45:00,44.9,26.9,29.84,WSW,247,9.0,21.0,49,0.00,,,-99.99,WeatherLink 5.4,2013-02-12 06:45:00,
2013-02-12 02:00:00,44.8,26.8,29.85,West,270,9.0,24.0,49,0.00,,,-99.99,WeatherLink 5.4,2013-02-12 07:00:00,
2013-02-12 02:05:00,44.8,26.8,29.85,West,270,9.0,24.0,49,0.00,,,-99.99,WeatherLink 5.4,2013-02-12 07:05:00,
2013-02-12 02:15:00,44.3,26.8,29.86,West,270,4.0,9.0,50,0.00,,,-99.99,WeatherLink 5.4,2013-02-12 07:15:00,
2013-02-12 02:20:00,44.3,26.8,29.86,West,270,4.0,9.0,50,0.00,,,-99.99,WeatherLink 5.4,2013-02-12 07:20:00,
2013-02-12 02:30:00,43.9,26.0,29.87,West,270,5.0,12.0,49,0.00,,,-99.99,WeatherLink 5.4,2013-02-12 07:30:00,
2013-02-12 02:45:00,43.6,25.7,29.87,WSW,247,8.0,19.0,49,0.00,,,-99.99,WeatherLink 5.4,2013-02-12 07:45:00,
2013-02-12 02:50:00,43.6,25.7,29.87,WSW,247,8.0,19.0,49,0.00,,,-99.99,WeatherLink 5.4,2013-02-12 07:50:00,
2013-02-12 03:00:00,43.5,25.6,29.87,WSW,247,9.0,20.0,49,0.00,,,-99.99,WeatherLink 5.4,2013-02-12 08:00:00,
2013-02-12 03:15:00,43.3,24.9,29.87,West,270,9.0,18.0,48,0.00,,,-99.99,WeatherLink 5.4,2013-02-12 08:15:00,
2013-02-12 03:20:00,43.3,24.9,29.87,West,270,9.0,18.0,48,0.00,,,-99.99,WeatherLink 5.4,2013-02-12 08:20:00,
2013-02-12 03:30:00,43.1,24.2,29.87,WSW,247,10.0,20.0,47,0.00,,,-99.99,WeatherLink 5.4,2013-02-12 08:30:00,
2013-02-12 03:45:00,43.3,24.4,29.86,West,270,11.0,19.0,47,0.00,,,-99.99,WeatherLink 5.4,2013-02-12 08:45:00,
2013-02-12 04:00:00,43.3,23.9,29.86,West,270,10.0,20.0,46,0.00,,,-99.99,WeatherLink 5.4,2013-02-12 09:00:00,
2013-02-12 04:15:00,43.3,24.4,29.87,WSW,247,9.0,20.0,47,0.00,,,-99.99,WeatherLink 5.4,2013-02-12 09:15:00,
2013-02-12 04:20:00,43.3,24.4,29.87,WSW,247,9.0,20.0,47,0.00,,,-99.99,WeatherLink 5.4,2013-02-12 09:20:00,
2013-02-12 04:30:00,43.2,24.3,29.88,West,270,7.0,17.0,47,0.00,,,-99.99,WeatherLink 5.4,2013-02-12 09:30:00,
2013-02-12 04:45:00,43.3,23.9,29.89,West,270,7.0,18.0,46,0.00,,,-99.99,WeatherLink 5.4,2013-02-12 09:45:00,
2013-02-12 04:50:00,43.3,23.9,29.89,West,270,7.0,18.0,46,0.00,,,-99.99,WeatherLink 5.4,2013-02-12 09:50:00,
2013-02-12 05:00:00,43.2,23.8,29.89,West,270,9.0,21.0,46,0.00,,,-99.99,WeatherLink 5.4,2013-02-12 10:00:00,
2013-02-12 05:15:00,43.1,23.7,29.89,West,270,7.0,17.0,46,0.00,,,-99.99,WeatherLink 5.4,2013-02-12 10:15:00,
2013-02-12 05:30:00,42.9,23.5,29.89,West,270,6.0,19.0,46,0.00,,,-99.99,WeatherLink 5.4,2013-02-12 10:30:00,
2013-02-12 05:35:00,42.9,23.5,29.89,West,270,6.0,19.0,46,0.00,,,-99.99,WeatherLink 5.4,2013-02-12 10:35:00,
2013-02-12 05:45:00,42.8,23.9,29.89,WNW,292,6.0,17.0,47,0.00,,,-99.99,WeatherLink 5.4,2013-02-12 10:45:00,
2013-02-12 05:50:00,42.8,23.9,29.89,WNW,292,6.0,17.0,47,0.00,,,-99.99,WeatherLink 5.4,2013-02-12 10:50:00,
2013-02-12 06:00:00,42.5,24.2,29.90,West,270,6.0,12.0,48,0.00,,,-99.99,WeatherLink 5.4,2013-02-12 11:00:00,
2013-02-12 06:05:00,42.5,24.2,29.90,West,270,6.0,12.0,48,0.00,,,-99.99,WeatherLink 5.4,2013-02-12 11:05:00,
2013-02-12 06:15:00,42.3,24.0,29.90,West,270,6.0,16.0,48,0.00,,,-99.99,WeatherLink 5.4,2013-02-12 11:15:00,
2013-02-12 06:20:00,42.3,24.0,29.90,West,270,6.0,16.0,48,0.00,,,-99.99,WeatherLink 5.4,2013-02-12 11:20:00,
2013-02-12 06:30:00,42.2,24.4,29.91,WSW,247,6.0,17.0,49,0.00,,,-99.99,WeatherLink 5.4,2013-02-12 11:30:00,
2013-02-12 06:35:00,42.2,24.4,29.91,WSW,247,6.0,17.0,49,0.00,,,-99.99,WeatherLink 5.4,2013-02-12 11:35:00,
2013-02-12 06:45:00,41.9,24.6,29.92,West,270,5.0,11.0,50,0.00,,,-99.99,WeatherLink 5.4,2013-02-12 11:45:00,
2013-02-12 06:50:00,41.9,24.6,29.92,West,270,5.0,11.0,50,0.00,,,-99.99,WeatherLink 5.4,2013-02-12 11:50:00,
2013-02-12 07:00:00,41.8,24.0,29.92,NW,315,4.0,10.0,49,0.00,,,-99.99,WeatherLink 5.4,2013-02-12 12:00:00,
2013-02-12 07:15:00,41.6,23.8,29.93,West,270,4.0,13.0,49,0.00,,,-99.99,WeatherLink 5.4,2013-02-12 12:15:00,
2013-02-12 07:30:00,41.6,23.8,29.93,West,270,5.0,14.0,49,0.00,,,-99.99,WeatherLink 5.4,2013-02-12 12:30:00,
2013-02-12 07:45:00,41.6,24.3,29.94,West,270,4.0,16.0,50,0.00,,,-99.99,WeatherLink 5.4,2013-02-12 12:45:00,
2013-02-12 07:50:00,41.6,24.3,29.94,West,270,4.0,16.0,50,0.00,,,-99.99,WeatherLink 5.4,2013-02-12 12:50:00,
2013-02-12 08:00:00,41.6,24.3,29.94,NW,315,4.0,13.0,50,0.00,,,-99.99,WeatherLink 5.4,2013-02-12 13:00:00,
2013-02-12 08:05:00,41.6,24.3,29.94,NW,315,4.0,13.0,50,0.00,,,-99.99,WeatherLink 5.4,2013-02-12 13:05:00,
2013-02-12 08:15:00,41.9,24.6,29.94,West,270,6.0,13.0,50,0.00,,,-99.99,WeatherLink 5.4,2013-02-12 13:15:00,
2013-02-12 08:20:00,41.9,24.6,29.94,West,270,6.0,13.0,50,0.00,,,-99.99,WeatherLink 5.4,2013-02-12 13:20:00,
2013-02-12 08:30:00,42.3,24.5,29.94,West,270,6.0,12.0,49,0.00,,,-99.99,WeatherLink 5.4,2013-02-12 13:30:00,
2013-02-12 08:45:00,42.9,24.5,29.95,West,270,7.0,14.0,48,0.00,,,-99.99,WeatherLink 5.4,2013-02-12 13:45:00,
2013-02-12 09:00:00,43.6,25.2,29.96,West,270,5.0,13.0,48,0.00,,,-99.99,WeatherLink 5.4,2013-02-12 14:00:00,
2013-02-12 09:15:00,43.8,25.4,29.97,West,270,6.0,13.0,48,0.00,,,-99.99,WeatherLink 5.4,2013-02-12 14:15:00,
2013-02-12 09:30:00,44.5,26.0,29.97,NW,315,5.0,12.0,48,0.00,,,-99.99,WeatherLink 5.4,2013-02-12 14:30:00,
2013-02-12 09:35:00,44.5,26.0,29.97,NW,315,5.0,12.0,48,0.00,,,-99.99,WeatherLink 5.4,2013-02-12 14:35:00,
2013-02-12 09:45:00,44.3,25.8,29.98,West,270,8.0,16.0,48,0.00,,,-99.99,WeatherLink 5.4,2013-02-12 14:45:00,
2013-02-12 10:00:00,44.2,24.2,29.98,West,270,8.0,16.0,45,0.00,,,-99.99,WeatherLink 5.4,2013-02-12 15:00:00,
2013-02-12 10:05:00,44.2,24.2,29.98,West,270,8.0,16.0,45,0.00,,,-99.99,WeatherLink 5.4,2013-02-12 15:05:00,
2013-02-12 10:15:00,44.5,25.0,29.99,WSW,247,8.0,20.0,46,0.00,,,-99.99,WeatherLink 5.4,2013-02-12 15:15:00,
2013-02-12 10:20:00,44.5,25.0,29.99,WSW,247,8.0,20.0,46,0.00,,,-99.99,WeatherLink 5.4,2013-02-12 15:20:00,
2013-02-12 10:30:00,44.9,25.3,30.00,NW,315,9.0,20.0,46,0.00,,,-99.99,WeatherLink 5.4,2013-02-12 15:30:00,
2013-02-12 10:45:00,44.8,25.3,30.00,NW,315,7.0,17.0,46,0.00,,,-99.99,WeatherLink 5.4,2013-02-12 15:45:00,
2013-02-12 10:50:00,44.8,25.3,30.00,NW,315,7.0,17.0,46,0.00,,,-99.99,WeatherLink 5.4,2013-02-12 15:50:00,
2013-02-12 11:00:00,44.8,25.3,30.01,NNW,337,8.0,20.0,46,0.00,,,-99.99,WeatherLink 5.4,2013-02-12 16:00:00,
2013-02-12 11:15:00,45.2,26.1,30.02,NNW,337,6.0,13.0,47,0.00,,,-99.99,WeatherLink 5.4,2013-02-12 16:15:00,
2013-02-12 11:30:00,44.8,26.3,30.01,NNW,337,8.0,14.0,48,0.00,,,-99.99,WeatherLink 5.4,2013-02-12 16:30:00,
2013-02-12 11:45:00,45.4,26.8,30.00,NNW,337,9.0,17.0,48,0.00,,,-99.99,WeatherLink 5.4,2013-02-12 16:45:00,
2013-02-12 12:00:00,46.5,26.8,30.00,NNW,337,8.0,16.0,46,0.00,,,-99.99,WeatherLink 5.4,2013-02-12 17:00:00,
2013-02-12 12:15:00,47.0,26.7,30.00,NNW,337,8.0,16.0,45,0.00,,,-99.99,WeatherLink 5.4,2013-02-12 17:15:00,
2013-02-12 12:20:00,47.0,26.7,30.00,NNW,337,8.0,16.0,45,0.00,,,-99.99,WeatherLink 5.4,2013-02-12 17:20:00,
2013-02-12 12:30:00,47.3,27.0,29.99,North,0,7.0,16.0,45,0.00,,,-99.99,WeatherLink 5.4,2013-02-12 17:30:00,
2013-02-12 12:45:00,47.6,26.7,29.99,NNW,337,8.0,13.0,44,0.00,,,-99.99,WeatherLink 5.4,2013-02-12 17:45:00,
2013-02-12 13:00:00,47.4,27.6,29.98,NNW,337,7.0,13.0,46,0.00,,,-99.99,WeatherLink 5.4,2013-02-12 18:00:00,
2013-02-12 13:05:00,47.4,27.6,29.98,NNW,337,7.0,13.0,46,0.00,,,-99.99,WeatherLink 5.4,2013-02-12 18:05:00,
2013-02-12 13:15:00,47.3,26.5,29.97,North,0,8.0,14.0,44,0.00,,,-99.99,WeatherLink 5.4,2013-02-12 18:15:00,
2013-02-12 13:20:00,47.3,26.5,29.97,North,0,8.0,14.0,44,0.00,,,-99.99,WeatherLink 5.4,2013-02-12 18:20:00,
2013-02-12 13:30:00,47.3,26.5,29.96,North,0,7.0,17.0,44,0.00,,,-99.99,WeatherLink 5.4,2013-02-12 18:30:00,
2013-02-12 13:45:00,47.7,26.8,29.94,North,0,6.0,13.0,44,0.00,,,-99.99,WeatherLink 5.4,2013-02-12 18:45:00,
2013-02-12 13:50:00,47.7,26.8,29.94,North,0,6.0,13.0,44,0.00,,,-99.99,WeatherLink 5.4,2013-02-12 18:50:00,
2013-02-12 14:00:00,47.9,26.5,29.95,NNW,337,5.0,13.0,43,0.00,,,-99.99,WeatherLink 5.4,2013-02-12 19:00:00,
2013-02-12 14:05:00,47.9,26.5,29.95,NNW,337,5.0,13.0,43,0.00,,,-99.99,WeatherLink 5.4,2013-02-12 19:05:00,
2013-02-12 14:15:00,48.3,27.9,29.95,NNW,337,6.0,16.0,45,0.00,,,-99.99,WeatherLink 5.4,2013-02-12 19:15:00,
2013-02-12 14:30:00,48.8,27.3,29.92,North,0,5.0,11.0,43,0.00,,,-99.99,WeatherLink 5.4,2013-02-12 19:30:00,
2013-02-12 14:45:00,49.2,27.1,29.89,North,0,4.0,11.0,42,0.00,,,-99.99,WeatherLink 5.4,2013-02-12 19:45:00,
2013-02-12 15:00:00,49.2,27.1,29.86,North,0,5.0,12.0,42,0.00,,,-99.99,WeatherLink 5.4,2013-02-12 20:00:00,
2013-02-12 15:15:00,49.5,27.3,29.86,NNW,337,2.0,10.0,42,0.00,,,-99.99,WeatherLink 5.4,2013-02-12 20:15:00,
2013-02-12 15:20:00,49.5,27.3,29.86,NNW,337,2.0,10.0,42,0.00,,,-99.99,WeatherLink 5.4,2013-02-12 20:20:00,
2013-02-12 15:30:00,49.5,27.3,29.90,North,0,3.0,8.0,42,0.00,,,-99.99,WeatherLink 5.4,2013-02-12 20:30:00,
2013-02-12 15:45:00,49.5,26.7,29.93,NNW,337,2.0,6.0,41,0.00,,,-99.99,WeatherLink 5.4,2013-02-12 20:45:00,
2013-02-12 16:00:00,49.8,26.4,29.94,WNW,292,1.0,5.0,40,0.00,,,-99.99,WeatherLink 5.4,2013-02-12 21:00:00,
2013-02-12 16:05:00,49.8,26.4,29.94,WNW,292,1.0,5.0,40,0.00,,,-99.99,WeatherLink 5.4,2013-02-12 21:05:00,
2013-02-12 16:15:00,50.4,27.0,29.93,West,270,1.0,5.0,40,0.00,,,-99.99,WeatherLink 5.4,2013-02-12 21:15:00,
2013-02-12 16:30:00,51.0,26.3,29.94,NW,315,1.0,5.0,38,0.00,,,-99.99,WeatherLink 5.4,2013-02-12 21:30:00,
2013-02-12 16:45:00,51.0,26.3,29.94,NW,315,1.0,6.0,38,0.00,,,-99.99,WeatherLink 5.4,2013-02-12 21:45:00,
2013-02-12 16:50:00,51.0,26.3,29.94,NW,315,1.0,6.0,38,0.00,,,-99.99,WeatherLink 5.4,2013-02-12 21:50:00,
2013-02-12 17:00:00,51.3,26.5,29.94,NNW,337,1.0,4.0,38,0.00,,,-99.99,WeatherLink 5.4,2013-02-12 22:00:00,
2013-02-12 17:15:00,51.0,26.3,29.94,NW,315,1.0,3.0,38,0.00,,,-99.99,WeatherLink 5.4,2013-02-12 22:15:00,
2013-02-12 17:30:00,50.1,26.7,29.94,NNW,337,1.0,3.0,40,0.00,,,-99.99,WeatherLink 5.4,2013-02-12 22:30:00,
2013-02-12 17:45:00,48.8,26.7,29.95,East,90,1.0,4.0,42,0.00,,,-99.99,WeatherLink 5.4,2013-02-12 22:45:00,
2013-02-12 18:00:00,47.6,26.7,29.96,ESE,112,1.0,3.0,44,0.00,,,-99.99,WeatherLink 5.4,2013-02-12 23:00:00,
2013-02-12 18:05:00,47.6,26.7,29.96,ESE,112,1.0,3.0,44,0.00,,,-99.99,WeatherLink 5.4,2013-02-12 23:05:00,
2013-02-12 18:15:00,45.8,26.7,29.96,East,90,1.0,3.0,47,0.00,,,-99.99,WeatherLink 5.4,2013-02-12 23:15:00,
2013-02-12 18:30:00,44.3,25.8,29.97,NE,45,1.0,3.0,48,0.00,,,-99.99,WeatherLink 5.4,2013-02-12 23:30:00,
2013-02-12 18:45:00,43.6,25.2,29.98,NE,45,1.0,3.0,48,0.00,,,-99.99,WeatherLink 5.4,2013-02-12 23:45:00,
2013-02-12 18:50:00,43.6,25.2,29.98,NE,45,1.0,3.0,48,0.00,,,-99.99,WeatherLink 5.4,2013-02-12 23:50:00,
2013-02-12 19:00:00,42.8,25.4,29.98,NE,45,1.0,6.0,50,0.00,,,-99.99,WeatherLink 5.4,2013-02-13 00:00:00,
2013-02-12 19:05:00,42.8,25.4,29.98,NE,45,1.0,6.0,50,0.00,,,-99.99,WeatherLink 5.4,2013-02-13 00:05:00,
2013-02-12 19:15:00,41.9,25.1,29.97,NNE,22,2.0,5.0,51,0.00,,,-99.99,WeatherLink 5.4,2013-02-13 00:15:00,
2013-02-12 19:30:00,41.3,25.4,29.97,NE,45,2.0,7.0,53,0.00,,,-99.99,WeatherLink 5.4,2013-02-13 00:30:00,
2013-02-12 19:35:00,41.3,25.4,29.97,NE,45,2.0,7.0,53,0.00,,,-99.99,WeatherLink 5.4,2013-02-13 00:35:00,
2013-02-12 19:45:00,40.8,25.0,29.96,NE,45,1.0,3.0,53,0.00,,,-99.99,WeatherLink 5.4,2013-02-13 00:45:00,
2013-02-12 19:50:00,40.8,25.0,29.96,NE,45,1.0,3.0,53,0.00,,,-99.99,WeatherLink 5.4,2013-02-13 00:50:00,
2013-02-12 20:00:00,40.1,25.2,29.96,NE,45,0.0,3.0,55,0.00,,,-99.99,WeatherLink 5.4,2013-02-13 01:00:00,
2013-02-12 20:05:00,40.1,25.2,29.96,NE,45,0.0,3.0,55,0.00,,,-99.99,WeatherLink 5.4,2013-02-13 01:05:00,
2013-02-12 20:15:00,39.2,24.8,29.95,NE,45,0.0,2.0,56,0.00,,,-99.99,WeatherLink 5.4,2013-02-13 01:15:00,
2013-02-12 20:20:00,39.2,24.8,29.95,NE,45,0.0,2.0,56,0.00,,,-99.99,WeatherLink 5.4,2013-02-13 01:20:00,
2013-02-12 20:30:00,38.5,24.6,29.94,NE,45,0.0,2.0,57,0.00,,,-99.99,WeatherLink 5.4,2013-02-13 01:30:00,
2013-02-12 20:35:00,38.5,24.6,29.94,NE,45,0.0,2.0,57,0.00,,,-99.99,WeatherLink 5.4,2013-02-13 01:35:00,
2013-02-12 20:45:00,37.8,24.3,29.94,NE,45,1.0,3.0,58,0.00,,,-99.99,WeatherLink 5.4,2013-02-13 01:45:00,
2013-02-12 20:50:00,37.8,24.3,29.94,NE,45,1.0,3.0,58,0.00,,,-99.99,WeatherLink 5.4,2013-02-13 01:50:00,
2013-02-12 21:00:00,36.9,23.9,29.93,North,-999,0.0,0.0,59,0.00,,,-99.99,WeatherLink 5.4,2013-02-13 02:00:00,
2013-02-12 21:15:00,35.8,23.7,29.94,North,-999,0.0,0.0,61,0.00,,,-99.99,WeatherLink 5.4,2013-02-13 02:15:00,
2013-02-12 21:20:00,35.8,23.7,29.94,North,-999,0.0,0.0,61,0.00,,,-99.99,WeatherLink 5.4,2013-02-13 02:20:00,
2013-02-12 21:30:00,34.7,23.4,29.94,North,-999,0.0,0.0,63,0.00,,,-99.99,WeatherLink 5.4,2013-02-13 02:30:00,
2013-02-12 21:35:00,34.7,23.4,29.94,North,-999,0.0,0.0,63,0.00,,,-99.99,WeatherLink 5.4,2013-02-13 02:35:00,
2013-02-12 21:45:00,34.0,23.5,29.95,NE,45,0.0,2.0,65,0.00,,,-99.99,WeatherLink 5.4,2013-02-13 02:45:00,
2013-02-12 22:00:00,32.9,23.8,29.96,NE,45,0.0,2.0,69,0.00,,,-99.99,WeatherLink 5.4,2013-02-13 03:00:00,
2013-02-12 22:15:00,32.4,24.0,29.96,NE,45,0.0,1.0,71,0.00,,,-99.99,WeatherLink 5.4,2013-02-13 03:15:00,
2013-02-12 22:20:00,32.4,24.0,29.96,NE,45,0.0,1.0,71,0.00,,,-99.99,WeatherLink 5.4,2013-02-13 03:20:00,
2013-02-12 22:30:00,31.9,23.6,29.96,NE,45,0.0,2.0,71,0.00,,,-99.99,WeatherLink 5.4,2013-02-13 03:30:00,
2013-02-12 22:35:00,31.9,23.6,29.96,NE,45,0.0,2.0,71,0.00,,,-99.99,WeatherLink 5.4,2013-02-13 03:35:00,
2013-02-12 22:45:00,31.3,24.0,29.97,NE,45,0.0,2.0,74,0.00,,,-99.99,WeatherLink 5.4,2013-02-13 03:45:00,
2013-02-12 22:50:00,31.3,24.0,29.97,NE,45,0.0,2.0,74,0.00,,,-99.99,WeatherLink 5.4,2013-02-13 03:50:00,
2013-02-12 23:00:00,31.0,23.4,29.96,North,-999,0.0,0.0,73,0.00,,,-99.99,WeatherLink 5.4,2013-02-13 04:00:00,
2013-02-12 23:15:00,30.7,23.4,29.96,North,-999,0.0,0.0,74,0.00,,,-99.99,WeatherLink 5.4,2013-02-13 04:15:00,
2013-02-12 23:20:00,30.7,23.4,29.96,North,-999,0.0,0.0,74,0.00,,,-99.99,WeatherLink 5.4,2013-02-13 04:20:00,
2013-02-12 23:30:00,30.4,23.4,29.96,North,-999,0.0,0.0,75,0.00,,,-99.99,WeatherLink 5.4,2013-02-13 04:30:00,
2013-02-12 23:35:00,30.4,23.4,29.96,North,-999,0.0,0.0,75,0.00,,,-99.99,WeatherLink 5.4,2013-02-13 04:35:00,
2013-02-12 23:45:00,30.1,23.8,29.95,North,-999,0.0,0.0,77,0.00,,,-99.99,WeatherLink 5.4,2013-02-13 04:45:00,
2013-02-12 23:50:00,30.1,23.8,29.95,North,-999,0.0,0.0,77,0.00,,,-99.99,WeatherLink 5.4,2013-02-13 04:50:00,